x

9439040 - Astoria, Or (asto3) Weather Station

6:54am - Mon 30th May 2016 All times are PDT. -7 hours from GMT.

  • Wind
    6mph, 9mph gusts
  • Sea Temp 60°f
  • 空気 Temp 51°f
  • Sea Pressure 1025.1mb
  • 9439040 - Astoria, Or
  • 9439040 - Astoria, Or

More Historic Weather Station data

Upgrade to MSW Pro to gain access to the past 30 days of data for over 8000 Wavebouys and Weather Stations around the globe.

Join Pro

Comparision Forecast

View Surf forecast
   
Mon 05/30 6:54am 6 9 mph 1025.1mb 60f 51f
6:48am 5 9 mph 1025.2mb 60f 52f
6:42am 6 10 mph 1025.2mb 60f 52f
6:36am 5 10 mph 1025.2mb 60f 52f
6:30am 6 8 mph 1025.2mb 60f 52f
6:24am 1 5 mph 1025.2mb 60f 51f
6:18am  -  2 mph 1025.1mb 60f 51f
6:12am 1 5 mph 1025mb 60f 50f
6:06am 3 6 mph 1025mb 60f 50f
6:00am 2 6 mph 1024.9mb 60f 50f
5:54am 3 5 mph 1024.9mb 60f 50f
5:48am 3 5 mph 1024.9mb 60f 50f
5:42am 3 6 mph 1024.9mb 60f 50f
5:36am 2 6 mph 1024.9mb 60f 50f
5:30am 5 6 mph 1024.9mb 60f 50f
5:24am 5 6 mph 1024.9mb 60f 50f
5:18am 5 6 mph 1024.9mb 60f 51f
5:12am 3 5 mph 1024.8mb 60f 51f
5:06am 3 5 mph 1024.8mb 60f 51f
5:00am 2 3 mph 1024.9mb 60f 51f
4:54am 3 6 mph 1024.9mb 60f 51f
4:48am 2 3 mph 1024.9mb 60f 51f
4:42am 3 7 mph 1025mb 60f 52f
4:36am 1 5 mph 1025mb 60f 52f
4:30am 5 7 mph 1025mb 60f 52f
4:24am 5 7 mph 1024.9mb 60f 52f
4:12am 3 9 mph 1025mb 60f 52f
4:06am 7 9 mph 1025mb 60f 53f
4:00am 6 10 mph 1025.1mb 60f 53f
3:54am 7 10 mph 1025mb 60f 53f
3:48am 10 15 mph 1024.9mb 60f 54f
3:42am 8 10 mph 1025mb 60f 54f
3:36am 6 11 mph 1025mb 60f 54f
3:30am 9 13 mph 1025mb 60f 54f
3:24am 6 7 mph 1024.9mb 60f 53f
3:18am 6 7 mph 1024.9mb 60f 53f
3:12am 5 7 mph 1024.9mb 60f 53f
3:06am 3 6 mph 1024.9mb 60f 52f
3:00am 2 3 mph 1024.9mb 60f 52f
2:54am 3 6 mph 1024.9mb 60f 53f
2:48am 5 7 mph 1024.9mb 60f 52f
2:42am 3 6 mph 1024.9mb 60f 53f
2:36am  -  6 mph 1024.9mb 60f 52f
2:30am 2 5 mph 1024.9mb 60f 53f
2:24am 3 7 mph 1024.9mb 60f 53f
2:18am 6 7 mph 1024.9mb 60f 53f
2:12am 2 6 mph 1024.9mb 60f 53f
2:06am  -  3 mph 1024.8mb 60f 53f
2:00am 3 5 mph 1024.9mb 60f 53f
1:54am 5 6 mph 1024.8mb 60f 53f
1:48am 6 7 mph 1024.8mb 60f 53f
1:42am 3 6 mph 1024.8mb 60f 54f
1:36am 5 7 mph 1024.8mb 60f 54f
1:30am 6 7 mph 1024.8mb 60f 54f
1:24am 5 7 mph 1024.8mb 60f 54f
1:18am 6 8 mph 1024.8mb 60f 54f
1:12am 6 8 mph 1024.7mb 60f 54f
1:06am 6 7 mph 1024.7mb 60f 54f
1:00am 7 9 mph 1024.7mb 60f 54f
12:54am 8 9 mph 1024.7mb 60f 54f
12:42am 7 9 mph 1024.8mb 60f 54f
12:36am 6 7 mph 1024.8mb 60f 54f
12:30am 7 9 mph 1024.8mb 60f 54f
12:24am 7 9 mph 1024.9mb 60f 54f
12:18am 7 8 mph 1024.8mb 60f 54f
12:12am 5 7 mph 1024.8mb 60f 55f
12:00am 6 7 mph 1024.8mb 60f 54f
Sun 05/29 11:54pm 5 6 mph 1024.8mb 60f 55f
11:48pm 3 6 mph 1024.8mb 60f 55f
11:42pm 3 6 mph 1024.8mb 60f 54f
11:36pm 5 6 mph 1024.9mb 60f 55f
11:30pm 3 6 mph 1024.9mb 60f 55f
11:24pm 6 7 mph 1024.8mb 60f 55f
11:18pm 5 7 mph 1024.8mb 60f 55f
11:12pm 5 7 mph 1024.8mb 60f 55f
11:06pm 5 6 mph 1024.8mb 60f 55f
11:00pm 6 7 mph 1024.8mb 60f 55f
10:54pm 5 7 mph 1024.8mb 60f 55f
10:48pm  -  mph 1024.7mb 60f 55f
10:42pm  -  mph 1024.7mb 59f 55f
10:36pm  -  mph 1024.7mb 60f 55f
10:30pm 8 11 mph 1024.7mb 60f 55f
10:24pm 7 9 mph 1024.7mb 61f 55f
10:18pm 8 10 mph 1024.7mb 61f 55f
10:12pm 7 11 mph 1024.7mb 61f 55f
10:06pm 8 10 mph 1024.6mb 61f 55f
10:00pm 6 9 mph 1024.5mb 60f 55f
9:54pm 6 9 mph 1024.5mb 60f 55f
9:48pm 7 8 mph 1024.5mb 60f 55f
9:42pm 8 10 mph 1024.5mb 60f 56f
9:36pm 7 9 mph 1024.4mb 60f 55f
9:30pm 8 9 mph 1024.4mb 60f 56f
9:24pm 7 10 mph 1024.2mb 60f 56f
9:18pm 8 13 mph 1024.1mb 60f 56f
9:12pm 8 14 mph 1024.1mb 60f 56f
9:06pm 8 13 mph 1024.1mb 60f 56f
9:00pm 9 13 mph 1024mb 60f 56f
8:54pm 11 14 mph 1024mb 60f 56f
8:48pm  -  mph 1024mb 60f 56f
8:42pm  -  mph 1024mb 60f 56f
8:36pm  -  mph 1024mb 61f 56f
8:30pm 13 15 mph 1023.9mb 61f 56f
8:24pm 10 13 mph 1023.9mb 61f 57f
8:18pm  -  mph 1023.9mb 61f 57f
8:12pm  -  mph 1023.9mb 61f 57f
8:06pm  -  mph 1023.9mb 61f 57f
8:00pm  -  mph - 61f 57f
7:54pm  -  mph - 61f 58f
7:48pm 11 16 mph 1023.7mb 61f -
7:42pm 11 16 mph 1023.7mb 61f -
7:36pm 13 16 mph 1023.7mb 61f -
7:30pm  -  mph 1023.6mb - -
7:24pm  -  mph 1023.6mb - -
7:18pm  -  mph - 61f -
7:12pm  -  mph - 61f -
7:06pm  -  mph - 61f -
7:00pm  -  mph - 61f 58f
6:54pm  -  mph - 61f 58f
6:48pm 14 16 mph 1023.3mb 61f 58f
6:42pm 9 14 mph 1023.2mb 61f 59f
6:36pm 13 16 mph 1023.2mb 61f 58f
6:30pm  -  mph 1023.2mb - -
6:24pm  -  mph 1023.2mb - -
6:18pm  -  mph - 61f 59f
6:12pm  -  mph - 61f 59f
6:06pm  -  mph - 61f 59f
6:00pm  -  mph 1023.2mb 61f -
5:54pm  -  mph 1023.3mb 61f -
5:48pm  -  mph 1023.3mb 61f -
5:42pm  -  mph 1023.3mb 61f -
5:36pm  -  mph 1023.2mb 61f -
5:30pm  -  mph 1023.2mb - -
5:24pm  -  mph 1023.2mb - -
5:18pm  -  mph - 61f 59f
5:12pm  -  mph - 61f 59f
5:06pm  -  mph - 61f 59f
5:00pm  -  mph 1023mb 61f 60f
4:54pm  -  mph 1023mb 61f 60f
4:48pm  -  mph 1023mb 61f -
4:42pm  -  mph 1023mb 61f -
4:36pm  -  mph 1023mb 61f -
4:30pm 5 10 mph - - -
4:24pm 2 5 mph - - -
4:18pm  -  mph - 61f 61f
4:12pm  -  mph - 61f 60f
4:06pm  -  mph - 61f 61f
4:00pm  -  mph 1023mb 61f -
3:54pm  -  mph 1023mb 62f -
3:48pm  -  mph - 62f -
3:42pm  -  mph - 62f -
3:36pm  -  mph - 62f -
3:30pm 2 6 mph 1023mb - -
3:24pm 1 9 mph 1022.9mb - -
3:18pm 1 7 mph 1022.9mb 62f 61f
3:12pm  -  7 mph 1022.9mb 62f 61f
3:06pm 2 5 mph 1022.9mb 62f 61f
3:00pm  -  mph - 62f -
2:54pm  -  mph - 62f -
2:48pm  -  mph - 62f -
2:42pm  -  mph - 61f -
2:36pm  -  mph - 61f -
2:30pm 2 8 mph 1022.8mb 61f 60f
2:24pm 2 9 mph 1022.8mb 61f 60f
2:18pm 2 7 mph 1022.7mb 61f 60f
2:12pm 2 6 mph 1022.7mb 61f 60f
2:06pm 2 8 mph 1022.7mb 61f 60f
2:00pm 2 6 mph 1022.7mb 61f 60f
1:54pm 1 9 mph 1022.6mb 61f 60f
1:48pm 2 6 mph 1022.5mb 61f 60f
1:42pm 2 6 mph 1022.5mb 60f 60f
1:36pm  -  7 mph 1022.5mb 60f 60f
1:30pm 2 6 mph 1022.4mb 60f 60f
1:24pm 1 3 mph 1022.4mb 60f 61f
1:18pm 1 6 mph 1022.4mb 60f 61f
1:12pm 2 6 mph 1022.4mb 60f 60f
1:06pm  -  5 mph 1022.3mb 60f 60f
1:00pm 2 6 mph 1022.3mb 60f 60f
12:54pm 2 6 mph 1022.2mb 60f 60f
12:48pm 2 6 mph 1022.1mb 60f 60f
12:42pm 1 3 mph 1022.1mb 60f 61f
12:36pm 1 6 mph 1022.1mb 60f 60f
12:30pm  -  5 mph 1022mb 60f 60f
12:24pm 2 5 mph 1021.9mb 60f 59f
12:18pm 1 6 mph 1021.9mb 60f 59f
12:12pm 1 3 mph 1021.9mb 60f 59f
12:06pm 1 3 mph 1021.8mb 60f 59f
12:00pm  -  1 mph 1021.7mb 60f 59f
11:54am 1 2 mph 1021.7mb 60f 58f
11:48am 1 2 mph 1021.6mb 60f 57f
11:42am 2 3 mph 1021.5mb 60f 57f
11:36am 2 3 mph 1021.5mb 60f 57f
11:24am 3 5 mph 1021.5mb 60f 57f
11:18am 2 3 mph 1021.4mb 60f 58f
11:12am 2 3 mph 1021.4mb 60f 58f
11:06am  -  3 mph 1021.3mb 60f 58f
11:00am 1 2 mph 1021.3mb 60f 58f
10:54am 1 2 mph 1021.2mb 60f 58f
10:48am 1 2 mph 1021.1mb 60f 57f
10:42am 1 2 mph 1021.1mb 60f 56f
10:36am 1 2 mph 1021.1mb 60f 56f
10:30am 1 3 mph 1021.1mb 60f 56f
10:24am 2 6 mph 1021.1mb 60f 56f
10:18am 3 5 mph 1021.1mb 60f 55f
10:12am 3 5 mph 1021.1mb 59f 55f
10:06am 3 6 mph 1021.1mb 59f 55f
10:00am 5 8 mph 1021mb 59f 55f
9:54am 5 6 mph 1021mb 59f 55f
9:48am 6
mph
1021mb 59f 54f
9:42am 3 6 mph 1020.9mb 59f 54f
9:36am 2 5 mph 1020.8mb 59f 53f
9:30am 3 7 mph 1020.8mb 60f 53f
9:24am 7 9 mph 1020.8mb 60f 52f
9:18am 8 13 mph 1020.8mb 60f 52f
9:12am 10 11 mph 1020.7mb 60f 52f
9:06am 2 8 mph 1020.6mb 60f 54f
9:00am 6 8 mph 1020.5mb 60f 54f
8:54am 5 8 mph 1020.4mb 60f 54f
8:48am 7 10 mph 1020.3mb 60f 54f
8:42am 3 9 mph 1020.3mb 60f 54f
8:36am 5 8 mph 1020.3mb 60f 53f
8:30am 3 6 mph 1020.1mb 60f 53f
8:24am 6 7 mph 1020mb 60f 53f
8:18am 3 7 mph 1020mb 60f 53f
8:12am 5 7 mph 1020mb 60f 52f
8:06am 6 8 mph 1020mb 60f 52f
8:00am 6 9 mph 1020mb 60f 52f
7:54am 8 11 mph 1020mb 60f 52f
7:48am 8 10 mph 1019.9mb 60f 53f
7:42am 7 11 mph 1019.9mb 60f 53f
7:36am 6 11 mph 1019.9mb 60f 54f
7:30am 6 11 mph 1019.8mb 60f 55f
7:24am 6 8 mph 1019.7mb 60f 55f
7:18am 7 9 mph 1019.6mb 60f 54f
7:12am 7 8 mph 1019.5mb 60f 55f
7:06am 6 8 mph 1019.4mb 60f 55f
7:00am 5 7 mph 1019.3mb 60f 54f
6:54am 6 9 mph 1019.3mb 60f 54f
6:48am 6 8 mph 1019.3mb 60f 54f
6:42am 6 8 mph 1019.2mb 60f 55f
6:36am 7 9 mph 1019.2mb 59f 55f
6:30am 6 8 mph 1019.1mb 59f 55f
6:24am 5 6 mph 1019.1mb 60f 55f
6:18am 5 7 mph 1019.1mb 60f 55f
6:12am 6 8 mph 1019mb 60f 55f
6:06am 5 8 mph 1019mb 60f 55f
6:00am 5 8 mph 1018.9mb 59f 55f
5:54am 6 7 mph 1018.9mb 59f 55f
5:36am 6 7 mph 1018.7mb 59f 55f
5:30am 5 6 mph 1018.7mb 59f 54f
5:24am 6
mph
1018.6mb 59f 54f
5:18am 5 6 mph 1018.6mb 59f 55f
5:12am 5 6 mph 1018.6mb 59f 55f
5:06am 6 8 mph 1018.6mb 59f 54f
5:00am 7
mph
1018.6mb 59f 54f
4:54am 6 7 mph 1018.5mb 59f 54f
4:48am 6 8 mph 1018.5mb 59f 55f
4:42am 6 7 mph 1018.5mb 59f 55f
4:36am 6 8 mph 1018.5mb 59f 54f
4:30am 6 8 mph 1018.4mb 59f 54f
4:24am 6 8 mph 1018.4mb 59f 54f
4:18am 7 8 mph 1018.3mb 59f 55f
4:12am 7 9 mph 1018.3mb 59f 54f
4:06am 7 9 mph 1018.3mb 59f 54f
4:00am 7 10 mph 1018.3mb 59f 54f
3:54am 7 10 mph 1018.3mb 59f 55f
3:48am 6 8 mph 1018.3mb 59f 54f
3:42am 7 8 mph 1018.3mb 59f 54f
3:36am 6 8 mph 1018.2mb 59f 54f
3:30am 3 7 mph 1018.2mb 59f 54f
3:24am 6 8 mph 1018.2mb 59f 54f
3:18am 6 8 mph 1018.2mb 59f 54f
3:12am 6
mph
1018.1mb 59f 54f
3:06am 6 7 mph 1018.1mb 59f 54f
3:00am 6 8 mph 1018.1mb 59f 55f
2:54am 5 6 mph 1018.1mb 59f 55f
2:48am 5 6 mph 1018.1mb 59f 54f
2:42am 5 6 mph 1018.2mb 59f 55f
2:36am 5 7 mph 1018.2mb 59f 54f
2:30am 5 7 mph 1018.2mb 59f 54f
2:24am 6 9 mph 1018.2mb 59f 55f
2:18am 8 9 mph 1018.2mb 59f 55f
2:12am 6 7 mph 1018.2mb 59f 55f
2:06am 6 7 mph 1018.2mb 59f 55f
2:00am 6 7 mph 1018.1mb 59f 55f
1:54am 6 7 mph 1018.1mb 59f 55f
1:48am 6 7 mph 1018.1mb 59f 55f
1:42am 6 7 mph 1018mb 59f 55f
1:36am 6 7 mph 1018mb 59f 55f
1:30am 6 7 mph 1018mb 59f 55f
1:24am 6 7 mph 1018mb 59f 55f
1:18am 5 7 mph 1018mb 59f 55f
1:12am 6 7 mph 1018mb 59f 55f
1:06am 6 9 mph 1018mb 59f 55f
1:00am 5 7 mph 1018mb 59f 55f
12:54am 5 6 mph 1018mb 59f 55f
12:48am 5 6 mph 1018.1mb 59f 55f
12:42am 3 6 mph 1018.1mb 59f 55f
12:36am 3 7 mph 1018.1mb 60f 55f
12:30am 5 7 mph 1018.1mb 60f 55f
12:24am 6 7 mph 1018.1mb 60f 55f
12:18am 5 8 mph 1018.1mb 60f 55f
12:12am 7 9 mph 1018.1mb 60f 55f
12:06am 6 8 mph 1018.1mb 60f 56f
12:00am 1 3 mph 1018.1mb 60f 56f
Sat 05/28 11:54pm 1 3 mph 1018.1mb 60f 56f
11:48pm 1 6 mph 1018.1mb 60f 56f
11:42pm  -  3 mph 1018.1mb 60f 56f
11:36pm 1 5 mph 1018.1mb 60f 56f
11:30pm  -  3 mph 1018.1mb 59f 56f
11:24pm 2 3 mph 1018.1mb 59f 56f
11:18pm 1 3 mph 1018.1mb 60f 56f
11:12pm  -  5 mph 1018.1mb 60f 56f
11:06pm 2 5 mph 1018mb 60f 56f
11:00pm 3 7 mph 1018mb 60f 56f
10:54pm 5 7 mph 1018mb 60f 56f
10:48pm  -  mph 1017.9mb 60f 55f
10:42pm  -  mph 1017.9mb 59f 55f
10:36pm  -  mph 1017.9mb 59f 55f
10:30pm 5 8 mph 1017.9mb 60f 55f
10:24pm 7 10 mph 1017.8mb 60f 55f
10:18pm 5 8 mph 1017.8mb 60f 55f
10:12pm 5 9 mph 1017.8mb 60f 55f
10:06pm 5 8 mph 1017.8mb 60f 55f
10:00pm 6 9 mph 1017.8mb 60f 55f
9:54pm 8 10 mph 1017.8mb 60f 55f
9:48pm 7 8 mph 1017.8mb 60f 55f
9:42pm 5 10 mph 1017.8mb 60f 55f
9:36pm 8 11 mph 1017.8mb 60f 55f
9:30pm 6 11 mph 1017.8mb 60f 55f
9:24pm 5 11 mph 1017.8mb 60f 55f
9:18pm 6 10 mph 1017.7mb 60f 55f
9:12pm 7 9 mph 1017.7mb 60f 55f
9:06pm 6 9 mph 1017.8mb 60f 55f
9:00pm 6 8 mph 1017.7mb 60f 55f
8:54pm 6 8 mph 1017.8mb 60f 55f
8:48pm 6 10 mph 1017.8mb 60f 55f
8:42pm 8 11 mph 1017.7mb 60f 55f
8:36pm 9 13 mph 1017.7mb 60f 55f
8:30pm 9 11 mph 1017.6mb 60f 56f
8:24pm 8 10 mph 1017.6mb 60f 56f
8:18pm  -  mph 1017.5mb 60f 56f
8:12pm  -  mph 1017.5mb 60f 56f
8:06pm  -  mph 1017.5mb 60f 57f
8:00pm  -  mph 1017.5mb 60f 57f
7:54pm  -  mph 1017.5mb 60f 57f
7:48pm 9 15 mph - 60f -
7:42pm 11 16 mph - 60f -
7:36pm 11 18 mph - 60f -
7:30pm 14 17 mph 1017.3mb - -
7:24pm 11 14 mph 1017.3mb - -
7:18pm  -  mph 1017.3mb 60f 57f
7:12pm  -  mph 1017.3mb 60f 57f
7:06pm  -  mph 1017.3mb 60f 57f
7:00pm  -  mph 1017.3mb - -
6:54pm  -  mph 1017.3mb - -
6:48pm  -  mph - 60f 57f
6:42pm  -  mph - 60f 57f
6:36pm  -  mph - 60f 57f
6:30pm 13 16 mph - - -
6:24pm 10 18 mph - - -
6:18pm  -  mph 1017.2mb 60f 57f
6:12pm  -  mph 1017.3mb 60f 57f
6:06pm  -  mph 1017.2mb 60f 57f
6:00pm  -  mph 1017.3mb - 57f
5:54pm  -  mph 1017.4mb - 57f
5:48pm  -  mph - 60f 56f
5:42pm  -  mph - 60f 56f
5:36pm  -  mph - 60f 56f
5:30pm 13 16 mph - - -
5:24pm 11 20 mph - - -
5:18pm  -  mph 1017.8mb 60f -
5:12pm  -  mph 1017.9mb 60f -
5:06pm  -  mph 1017.9mb 60f -
5:00pm 14 20 mph - - -
4:54pm 14 21 mph - - -
4:48pm  -  mph 1017.9mb - -
4:42pm  -  mph 1018mb - -
4:36pm  -  mph 1018.1mb - -
4:30pm 10 16 mph 1018.1mb - -
4:24pm 10 15 mph 1018.2mb - -
4:18pm  -  mph - 60f 57f
4:12pm  -  mph - 60f 57f
4:06pm  -  mph - 60f 57f
4:00pm 14 18 mph - - 57f
3:54pm 10 16 mph - - 57f
3:48pm  -  mph 1018.2mb - -
3:42pm  -  mph 1018.2mb - -
3:36pm  -  mph 1018.3mb - -
3:30pm  -  mph 1018.4mb 60f 56f
3:24pm  -  mph 1018.4mb 60f 56f
3:12pm  -  mph 1018.3mb 60f 57f
3:06pm  -  mph 1018.3mb 60f 57f
3:00pm 17 22 mph - - -
2:54pm 17 25 mph - - -
2:48pm  -  mph 1018mb 60f 58f
2:42pm  -  mph 1018mb 60f 58f
2:36pm  -  mph 1018mb 60f 58f
2:30pm 16 20 mph 1018mb 60f 58f
2:24pm 15 21 mph 1018mb 60f 58f
2:18pm 14 17 mph 1018mb 60f 58f
2:12pm 13 16 mph 1018mb 60f 58f
2:06pm 14 17 mph 1018mb 60f 58f
2:00pm 14 18 mph 1018mb 60f 58f
1:54pm 9 15 mph 1018mb 60f 58f
1:42pm 13 16 mph 1018mb 60f 59f
1:36pm 8 15 mph 1018.1mb 60f 59f
1:30pm 11 16 mph 1018.1mb 60f 59f
1:24pm 10 15 mph 1018.2mb 60f 59f
1:18pm 9 15 mph 1018.3mb 60f 59f
1:12pm 7 14 mph 1018.3mb 60f 59f
1:06pm 9 16 mph 1018.4mb 60f 58f
1:00pm 8 15 mph 1018.4mb 60f 58f
12:54pm 7 15 mph 1018.4mb 60f 58f
12:48pm 13 16 mph 1018.5mb 60f 58f
12:42pm 10 16 mph 1018.6mb 60f 58f
12:36pm 9 15 mph 1018.6mb 60f 58f
12:30pm 10 16 mph 1018.7mb 60f 58f
12:18pm 8 14 mph 1018.7mb 60f 58f
12:12pm 10 17 mph 1018.7mb 60f 58f
12:06pm 10 15 mph 1018.7mb 60f 58f
12:00pm 10 17 mph 1018.8mb 60f 58f
11:54am 9 14 mph 1018.8mb 60f 57f
11:48am 9 16 mph 1018.8mb 60f 57f
11:42am 9 13 mph 1018.8mb 60f 57f
11:36am 11 15 mph 1018.9mb 60f 57f
11:30am 10 14 mph 1018.9mb 60f 57f
11:24am 11 15 mph 1018.9mb 60f 56f
11:18am 10 16 mph 1018.9mb 60f 57f
11:12am 11 16 mph 1018.8mb 60f 57f
11:06am 8 14 mph 1018.8mb 60f 56f
11:00am 8 14 mph 1018.8mb 60f 56f
10:54am 11 14 mph 1018.9mb 60f 56f
10:48am 10 15 mph 1018.9mb 60f 56f
10:42am 8 13 mph 1019mb 60f 56f
10:36am 8 11 mph 1018.9mb 60f 56f
10:30am 8 11 mph 1018.9mb 60f 55f
10:24am 8 14 mph 1018.9mb 60f 56f
10:18am 10 13 mph 1018.9mb 60f 56f
10:12am 9 13 mph 1018.9mb 60f 56f
10:06am 8 13 mph 1018.9mb 60f 56f
10:00am 7 10 mph 1018.9mb 60f 56f
9:54am 5 6 mph 1019mb 60f 55f
9:48am 3 6 mph 1019mb 60f 55f
9:42am 5 6 mph 1019mb 60f 54f
9:36am 6 7 mph 1019.1mb 60f 54f
9:30am 6 7 mph 1019mb 60f 54f
9:24am 6 8 mph 1019.1mb 60f 54f
9:18am 6 9 mph 1019.1mb 60f 54f
9:12am 6 7 mph 1019.1mb 59f 53f
9:06am 7 9 mph 1019.1mb 60f 53f
9:00am 7 9 mph 1019.2mb 60f 53f
8:54am 6 7 mph 1019.2mb 60f 53f
8:48am 5 7 mph 1019.2mb 59f 53f
8:42am 5 6 mph 1019.2mb 59f 53f
8:36am 3 7 mph 1019.2mb 59f 53f
8:30am 3 8 mph 1019.2mb 59f 53f
8:24am 5 6 mph 1019.2mb 59f 52f
8:18am 2 5 mph 1019.2mb 59f 52f
8:12am 2 6 mph 1019.3mb 60f 52f
8:06am 6 7 mph 1019.3mb 60f 52f
8:00am 6 7 mph 1019.3mb 60f 52f
7:54am 6 7 mph 1019.3mb 60f 52f
7:48am 6 7 mph 1019.3mb 60f 52f
7:42am 6 9 mph 1019.2mb 60f 52f
7:36am 7 9 mph 1019.2mb 60f 51f
7:30am 7 9 mph 1019.2mb 60f 51f
7:24am 7 9 mph 1019.2mb 60f 51f
7:18am 7 9 mph 1019.2mb 60f 51f
7:12am 6 9 mph 1019.2mb 60f 51f
7:06am 7 10 mph 1019.2mb 60f 51f
7:00am 7 9 mph 1019.3mb 60f 51f
6:54am 7 10 mph 1019.2mb 60f 51f
6:48am 7 9 mph 1019.2mb 60f 51f
6:42am 7 10 mph 1019.2mb 60f 51f
6:36am 7 10 mph 1019.3mb 60f 51f
6:30am 7 11 mph 1019.4mb 60f 51f
6:24am 7 11 mph 1019.4mb 60f 51f
6:18am 8 11 mph 1019.4mb 60f 51f
6:12am 8 13 mph 1019.4mb 60f 51f
6:06am 8 11 mph 1019.4mb 60f 51f
6:00am  -  mph 1019.4mb 60f 51f
5:54am  -  mph 1019.4mb 60f 51f
5:48am 9 13 mph 1019.4mb 60f 50f
5:42am 8 10 mph 1019.4mb 60f 50f
5:36am 9 13 mph 1019.4mb 60f 50f
5:30am 8 13 mph 1019.4mb 60f 50f
5:24am 8 10 mph 1019.5mb 60f 51f
5:18am 8 11 mph 1019.5mb 60f 51f
5:12am 8 10 mph 1019.5mb 60f 51f
5:06am 8 10 mph 1019.5mb 60f 51f
5:00am 8 10 mph 1019.5mb 60f 50f
4:54am 7 10 mph 1019.5mb 60f 50f
4:48am 7 10 mph 1019.6mb 60f 50f
4:42am 7 9 mph 1019.7mb 60f 50f
4:36am 7 10 mph 1019.7mb 60f 50f
4:30am 6 8 mph 1019.7mb 60f 50f
4:24am 8 9 mph 1019.6mb 60f 50f
4:18am 7 9 mph 1019.7mb 60f 50f
4:12am 6 8 mph 1019.7mb 60f 51f
4:06am 6 7 mph 1019.7mb 60f 51f
4:00am 6 8 mph 1019.8mb 60f 51f
3:54am 6 8 mph 1019.8mb 60f 51f
3:48am 6 8 mph 1019.8mb 60f 51f
3:42am 7 8 mph 1019.8mb 60f 51f
3:36am 7 10 mph 1019.9mb 60f 51f
3:30am 7 10 mph 1019.9mb 60f 51f
3:24am 8 11 mph 1019.9mb 60f 51f
3:18am 8 10 mph 1020mb 60f 51f
3:12am 8 10 mph 1020mb 60f 51f
3:06am 7 10 mph 1020mb 60f 51f
3:00am 8 10 mph 1020.1mb 60f 51f
2:54am 8 10 mph 1020.2mb 60f 51f
2:48am 8 10 mph 1020.2mb 60f 51f
2:42am 8 10 mph 1020.3mb 60f 51f
2:36am 7 10 mph 1020.4mb 60f 51f
2:30am 9 11 mph 1020.3mb 60f 51f
2:24am 9 11 mph 1020.4mb 60f 51f
2:18am 8 10 mph 1020.5mb 60f 51f
2:12am 7 10 mph 1020.5mb 60f 51f
2:06am 7 11 mph 1020.6mb 60f 51f
2:00am 7 10 mph 1020.7mb 60f 51f
1:54am 6 8 mph 1020.7mb 60f 52f
1:48am 6 7 mph 1020.8mb 60f 52f
1:42am 6 8 mph 1020.8mb 60f 52f
1:36am 6 8 mph 1020.8mb 60f 51f
1:30am 6 7 mph 1020.9mb 60f 51f
1:24am 5 6 mph 1021mb 60f 51f
1:18am 6 7 mph 1021.1mb 60f 51f
1:12am 5 7 mph 1021.1mb 60f 51f
1:06am 5 6 mph 1021.1mb 60f 51f
1:00am 5 6 mph 1021.2mb 60f 51f
12:54am 5 7 mph 1021.3mb 60f 51f
12:48am 5 7 mph 1021.4mb 60f 51f
12:42am 6 7 mph 1021.4mb 60f 51f
12:36am 5 7 mph 1021.4mb 60f 51f
12:30am 5 7 mph 1021.5mb 60f 51f
12:24am 6 7 mph 1021.5mb 60f 51f
12:18am 5 6 mph 1021.5mb 60f 51f
12:12am 3 5 mph 1021.5mb 60f 52f
12:06am 2 3 mph 1021.6mb 60f 53f
12:00am 2 3 mph 1021.6mb 60f 53f
Fri 05/27 11:54pm 2 5 mph 1021.6mb 60f 53f
11:48pm 3 6 mph 1021.6mb 60f 53f
11:42pm 3
mph
1021.6mb 60f 53f
11:36pm 2 6 mph 1021.6mb 60f 53f
11:30pm 5 6 mph 1021.6mb 60f 53f
11:24pm 5 6 mph 1021.7mb 60f 53f
11:18pm  -  mph 1021.7mb 60f 53f
11:12pm  -  mph 1021.7mb 60f 53f
11:06pm  -  mph 1021.7mb 60f 54f
11:00pm  -  mph 1021.8mb 60f 54f
10:54pm  -  mph 1021.8mb 60f 54f
10:48pm 6 9 mph 1021.9mb 60f 54f
10:42pm 6 8 mph 1021.9mb 60f 54f
10:36pm 6 8 mph 1021.9mb 60f 54f
10:30pm 7 8 mph 1022mb 60f 54f
10:24pm 7 9 mph 1022mb 60f 54f
10:18pm 7 9 mph 1022mb 60f 54f
10:12pm 7 8 mph 1022mb 60f 54f
10:06pm 7 9 mph 1022mb 60f 54f
10:00pm 7 9 mph 1022mb 60f 54f
9:54pm 8 10 mph 1022mb 60f 54f
9:48pm 8 10 mph 1021.9mb 60f 54f
9:42pm 8 10 mph 1021.9mb 60f 54f
9:36pm 7 9 mph 1021.9mb 60f 54f
9:30pm 7 9 mph 1021.9mb 60f 54f
9:24pm 6 9 mph 1021.9mb 60f 54f
9:18pm 6 9 mph 1021.7mb 60f 54f
9:12pm 3 9 mph 1021.8mb 60f 55f
9:06pm 5 11 mph 1021.8mb 60f 55f
9:00pm 3 10 mph 1021.9mb 60f 55f
8:54pm 6 10 mph 1021.9mb 59f 55f
8:48pm  -  mph 1021.9mb 59f 55f
8:42pm  -  mph 1021.8mb 60f 55f
8:36pm  -  mph 1021.9mb 60f 55f
8:30pm 2 6 mph 1021.9mb 60f 55f
8:24pm 2 5 mph 1021.9mb 60f 55f
8:18pm  -  mph 1021.9mb 60f -
8:12pm  -  mph 1021.9mb 60f -
8:06pm  -  mph 1021.9mb 60f -
8:00pm  -  3 mph 1021.9mb 60f -
7:54pm 1 6 mph 1021.9mb 60f -
7:48pm  -  mph - 60f -
7:42pm  -  mph - 60f -
7:36pm  -  mph - 60f -
7:30pm  -  mph 1022.1mb - -
7:24pm  -  mph 1022.1mb - -
7:18pm  -  mph 1022.1mb - 56f
7:12pm  -  mph 1022.1mb - 56f
7:06pm  -  mph 1022.2mb - 56f
7:00pm 2 5 mph 1022.1mb - -
6:54pm 1 3 mph 1022.1mb - -
6:48pm  -  mph 1022.2mb 60f -
6:42pm  -  mph 1022.2mb 60f -
6:36pm  -  mph 1022.3mb 60f -
6:30pm 3 8 mph 1022.2mb 60f -
6:24pm 2 9 mph 1022.2mb 60f -
6:18pm  -  mph 1022.3mb 60f -
6:12pm  -  mph 1022.3mb 60f -
6:06pm  -  mph 1022.3mb 60f -
6:00pm 5 13 mph 1022.3mb - -
5:54pm 2 8 mph 1022.4mb - -
5:48pm  -  mph 1022.4mb 60f -
5:42pm  -  mph 1022.5mb 60f -
5:36pm  -  mph 1022.5mb 60f -
5:30pm 1 11 mph 1022.5mb 60f -
5:24pm 3 10 mph 1022.5mb 60f -
5:12pm  -  mph - 60f 57f
5:06pm  -  mph - 60f 58f
5:00pm  -  mph 1022.6mb 60f -
4:54pm  -  mph 1022.6mb 60f -
4:48pm  -  mph 1022.6mb 60f -
4:42pm  -  mph 1022.6mb 60f -
4:36pm  -  mph 1022.6mb 60f -
4:30pm 2 6 mph 1022.6mb 60f -
4:24pm 2 8 mph 1022.6mb 60f -
4:18pm  -  mph 1022.7mb 60f 57f
4:12pm  -  mph 1022.7mb 60f 57f
4:06pm  -  mph 1022.8mb 60f 57f
3:54pm 1 6 mph 1022.7mb - -
3:48pm  -  mph 1022.8mb - -
3:42pm  -  mph 1022.8mb - -
3:36pm  -  mph 1022.7mb - -
3:30pm 1 6 mph 1022.8mb 60f -
3:24pm 1 6 mph 1022.9mb 60f -
3:18pm  -  mph 1022.9mb 61f -
3:12pm  -  mph 1023mb 61f -
3:06pm  -  mph 1022.9mb 61f -
3:00pm  -  mph 1022.9mb - 58f
2:54pm  -  mph 1022.9mb - 57f
2:48pm  -  mph 1022.8mb 61f 57f
2:42pm  -  mph 1022.9mb 61f 57f
2:36pm  -  mph 1022.8mb 61f 56f
2:30pm 2 8 mph 1022.9mb 60f 56f
2:24pm 3 10 mph 1023mb 60f 56f
2:18pm 2 10 mph 1023mb 60f 56f
2:12pm 8 13 mph 1023mb 60f 55f
2:06pm 7 14 mph 1023mb 61f 55f
2:00pm 8 15 mph 1023mb 61f 55f
1:54pm 9 13 mph 1023mb 61f 54f
1:48pm 10 15 mph 1023mb 61f 54f
1:42pm 11 16 mph 1023.1mb 61f 54f
1:36pm 13 17 mph 1023.1mb 61f 54f
1:30pm 8 14 mph 1023mb 61f 55f
1:24pm 6 14 mph 1023mb 61f 55f
1:18pm 9 13 mph 1023mb 61f 55f
1:12pm 7 11 mph 1023.1mb 61f 54f
1:06pm 3 9 mph 1023.2mb 61f 54f
1:00pm 7 10 mph 1023.2mb 61f 53f
12:54pm 3 7 mph 1023.2mb 61f 53f
12:48pm 2 8 mph 1023.2mb 60f 54f
12:42pm 2 10 mph 1023.2mb 60f 54f
12:36pm 3 8 mph 1023.2mb 60f 53f
12:30pm 5 10 mph 1023.2mb 60f 53f
12:24pm 9 14 mph 1023.1mb 60f 53f
12:18pm 11 16 mph 1023mb 60f 52f
12:12pm 11 20 mph 1022.9mb 60f 52f
12:06pm 16 20 mph 1022.9mb 60f 53f
12:00pm 8 18 mph 1022.8mb 60f 54f
11:54am 2 8 mph 1022.9mb 60f 56f
11:48am 5 8 mph 1022.8mb 60f 56f
11:42am 6 8 mph 1022.8mb 60f 55f
11:36am 5 8 mph 1022.7mb 60f 55f
11:24am 9 11 mph 1022.8mb 60f 53f
11:18am 6 10 mph 1022.8mb 60f 53f
11:12am 10 13 mph 1022.8mb 60f 53f
11:06am 11 13 mph 1022.8mb 60f 52f
11:00am 10 14 mph 1022.7mb 60f 53f
10:54am 3 8 mph 1022.7mb 59f 56f
10:48am 3 8 mph 1022.6mb 60f 56f
10:42am 2 7 mph 1022.5mb 60f 57f
10:36am 2 7 mph 1022.5mb 60f 56f
10:30am 3 9 mph 1022.5mb 60f 56f
10:24am 1 7 mph 1022.5mb 60f 56f
10:18am 2 6 mph 1022.6mb 59f 56f
10:12am 2 7 mph 1022.6mb 59f 56f
10:06am 1 5 mph 1022.6mb 59f 56f
10:00am 2 6 mph 1022.6mb 60f 55f
9:54am 1 6 mph 1022.6mb 60f 55f
9:48am 3 6 mph 1022.6mb 59f 54f
9:42am 3 8 mph 1022.6mb 59f 54f
9:36am 6 7 mph 1022.5mb 59f 54f
9:30am 2 9 mph 1022.5mb 59f 54f
9:24am 8 9 mph 1022.5mb 60f 53f
9:18am 2 8 mph 1022.4mb 60f 54f
9:12am 6 8 mph 1022.5mb 60f 53f
9:06am 5 9 mph 1022.5mb 60f 53f
9:00am 5 9 mph 1022.5mb 60f 53f
8:54am 6 9 mph 1022.5mb 60f 53f
8:48am 8 13 mph 1022.6mb 60f 53f
8:42am 8 10 mph 1022.6mb 60f 53f
8:36am 5 10 mph 1022.6mb 60f 53f
8:30am 6 10 mph 1022.5mb 60f 53f
8:24am 2 5 mph 1022.5mb 60f 53f
8:18am 2 6 mph 1022.5mb 60f 53f
8:12am 1 5 mph 1022.5mb 60f 53f
8:06am 1 6 mph 1022.5mb 60f 53f
8:00am 3 7 mph 1022.5mb 60f 53f
7:54am 7 9 mph 1022.5mb 60f 53f
7:48am 5 8 mph 1022.5mb 60f 53f
7:42am 5 7 mph 1022.5mb 60f 53f
7:36am 5 9 mph 1022.5mb 60f 53f
7:30am 7 10 mph 1022.5mb 60f 53f
7:24am 8 10 mph 1022.5mb 60f 53f
7:18am 9 16 mph 1022.4mb 60f 53f
7:12am 5 9 mph 1022.3mb 60f 53f
7:06am 3 7 mph 1022.3mb 60f 53f
7:00am 3 6 mph 1022.3mb 60f 53f
6:54am  -  3 mph 1022.2mb 60f 53f
6:48am 3 6 mph 1022.1mb 60f 53f
6:42am 2 8 mph 1022.2mb 60f 53f
6:36am 5 8 mph 1022.1mb 60f 53f
6:30am 5 13 mph 1022.1mb 60f 53f
6:24am 8 11 mph 1022.2mb 60f 53f
6:18am 6 11 mph 1022.2mb 60f 53f
6:12am 3 7 mph 1022.2mb 60f 53f
6:06am 1 5 mph 1022.2mb 60f 53f
6:00am 2 6 mph 1022.1mb 60f 53f
5:54am 2 14 mph 1022.1mb 60f 52f
5:48am 11 16 mph 1022.2mb 60f 52f
5:42am 14 20 mph 1022.2mb 60f 52f
5:36am 15 18 mph 1022.2mb 60f 52f
5:30am 14 18 mph 1022.2mb 60f 51f
5:24am 16 21 mph 1022.3mb 60f 52f
5:18am 13 15 mph 1022.2mb 60f 53f
5:12am 9 11 mph 1022.1mb 60f 52f
5:06am 8 10 mph 1022.1mb 60f 52f
5:00am 6 8 mph 1022mb 60f 52f
4:54am 7 10 mph 1022mb 60f 52f
4:48am 7 11 mph 1022mb 60f 52f
4:42am 10 14 mph 1022mb 60f 52f
4:36am 11 14 mph 1022mb 60f 53f
4:30am 10 14 mph 1021.9mb 60f 53f
4:24am 9 15 mph 1021.9mb 60f 53f
4:18am 9 14 mph 1022mb 60f 53f
4:12am 11 17 mph 1022mb 60f 53f
4:06am 11 17 mph 1022mb 60f 55f
4:00am 7 13 mph 1022.2mb 60f 55f
3:54am 5 9 mph 1022.2mb 60f 55f
3:48am 7 14 mph 1022.3mb 60f 55f
3:42am 11 18 mph 1022.3mb 60f 55f
3:36am 2 7 mph 1022.3mb 60f 55f
3:30am 3 7 mph 1022.3mb 60f 55f
3:24am 10 15 mph 1022.3mb 60f 55f
3:18am 9 13 mph 1022.3mb 60f 55f
3:12am 6 14 mph 1022.3mb 60f 55f
3:06am 3 8 mph 1022.3mb 60f 55f
3:00am 3 6 mph 1022.3mb 60f 54f
2:54am 2 6 mph 1022.3mb 60f 54f
2:48am 6 9 mph 1022.4mb 60f 54f
2:42am 3 8 mph 1022.4mb 60f 53f
2:36am 7 9 mph 1022.4mb 60f 52f
2:30am 7 9 mph 1022.5mb 60f 53f
2:24am 8 10 mph 1022.5mb 60f 53f
2:18am 7 9 mph 1022.6mb 60f 53f
2:12am 3 6 mph 1022.6mb 60f 54f
2:06am 1 5 mph 1022.7mb 60f 54f
2:00am 2 8 mph 1022.7mb 60f 54f
1:54am 2 7 mph 1022.7mb 60f 54f
1:48am 6 8 mph 1022.8mb 60f 54f
1:42am 5 6 mph 1022.7mb 60f 54f
1:36am  -  3 mph 1022.8mb 60f 54f
1:30am 1 5 mph 1022.8mb 60f 54f
1:24am 1 3 mph 1022.8mb 60f 54f
1:18am 3 6 mph 1022.8mb 60f 54f
1:12am  -  8 mph 1022.8mb 60f 53f
1:06am 3 7 mph 1022.9mb 60f 54f
1:00am 2 10 mph 1023mb 60f 54f
12:54am 5 10 mph 1023.1mb 60f 54f
12:48am 3 7 mph 1023.1mb 60f 54f
12:42am 2 9 mph 1023.1mb 60f 54f
12:36am 6 9 mph 1023.1mb 60f 54f
12:30am 3 10 mph 1023.1mb 60f 54f
12:24am 5 9 mph 1023.1mb 60f 53f
12:18am 5 8 mph 1023.2mb 60f 53f
12:12am 1 9 mph 1023.2mb 60f 53f
12:06am 5 9 mph 1023.3mb 60f 53f
12:00am 3 7 mph 1023.3mb 60f 53f
Thu 05/26 11:54pm 2 9 mph 1023.3mb 60f 53f
11:48pm 8 10 mph 1023.4mb 60f 53f
11:42pm 5 8 mph 1023.3mb 60f 52f
11:36pm 7 10 mph 1023.3mb 60f 52f
11:30pm 7 10 mph 1023.3mb 60f 52f
11:24pm 8 13 mph 1023.3mb 60f 52f
11:18pm 8 15 mph 1023.4mb 60f 52f
11:12pm 11 16 mph 1023.5mb 60f 52f
11:06pm 15 22 mph 1023.4mb 60f 53f
11:00pm  -  mph 1023.4mb 60f 54f
10:54pm  -  mph 1023.4mb 60f 55f
10:48pm  -  mph 1023.4mb 60f 54f
10:42pm  -  mph 1023.3mb 60f 55f
10:36pm  -  mph 1023.3mb 60f 55f
10:30pm 10 14 mph 1023.3mb 60f 55f
10:24pm 7 10 mph 1023.3mb 60f 55f
10:18pm 1 9 mph 1023.3mb 60f 55f
10:12pm 1 8 mph 1023.3mb 60f 55f
10:06pm 5 7 mph 1023.3mb 60f 55f
10:00pm 2 8 mph 1023.3mb 60f 55f
9:54pm 7 10 mph 1023.3mb 60f 55f
9:48pm 5 10 mph 1023.3mb 60f 55f
9:42pm 3 10 mph 1023.3mb 60f 55f
9:36pm 7 9 mph 1023.2mb 60f 54f
9:30pm 6 9 mph 1023.3mb 60f 55f
9:24pm 6 10 mph 1023.3mb 60f 55f
9:18pm 5 13 mph 1023.3mb 60f 55f
9:12pm 10 14 mph 1023.3mb 60f 54f
9:06pm 5 10 mph 1023.2mb 60f 54f
9:00pm 7 13 mph 1023.2mb 60f 54f
8:54pm 10 13 mph 1023.2mb 60f 54f
8:48pm  -  mph 1023.2mb 60f 54f
8:42pm  -  mph 1023.2mb 60f 54f
8:36pm  -  mph 1023.3mb 60f 54f
8:24pm 10 13 mph 1023.2mb 60f 54f
8:18pm  -  mph 1023.3mb 60f -
8:12pm  -  mph 1023.3mb 60f -
8:06pm  -  mph 1023.2mb 60f -
8:00pm  -  mph 1023.2mb 60f -
7:54pm  -  mph 1023.3mb 60f -
7:42pm 8 14 mph 1023.2mb - 54f
7:36pm 8 11 mph 1023.2mb - 55f
7:30pm 5 8 mph 1023.2mb - -
7:24pm 1 5 mph 1023.2mb - -
7:18pm  -  mph 1023.2mb 60f 55f
7:12pm  -  mph 1023.2mb 60f 55f
7:06pm  -  mph 1023.2mb 60f 55f
7:00pm  -  mph 1023.2mb - -
6:54pm  -  mph 1023.1mb - -
6:48pm  -  mph 1023.1mb - -
6:42pm  -  mph 1023.2mb - -
6:36pm  -  mph 1023.3mb - -
6:30pm 3 11 mph 1023.3mb - -
6:24pm 3 9 mph 1023.3mb - -
6:18pm  -  mph 1023.3mb 60f 55f
6:12pm  -  mph 1023.4mb 60f 55f
6:06pm  -  mph 1023.5mb 60f 55f
6:00pm  -  mph 1023.5mb - -
5:54pm  -  mph 1023.5mb - -
5:48pm  -  mph - - 55f
5:42pm  -  mph - - 54f
5:36pm  -  mph - - 54f
5:30pm 14 17 mph 1023.7mb 60f -
5:24pm 14 17 mph 1023.7mb 60f -
5:18pm  -  mph - 60f 55f
5:12pm  -  mph - 60f 54f
5:06pm  -  mph - 60f 54f
5:00pm  -  mph 1023.7mb - -
4:54pm  -  mph 1023.7mb - -
4:48pm  -  mph - 60f -
4:42pm  -  mph - 60f -
4:36pm  -  mph - 60f -
4:30pm 13 15 mph 1023.9mb 60f -
4:24pm 9 14 mph 1023.8mb 60f -
4:18pm  -  mph - 60f 54f
4:12pm  -  mph - 60f 53f
4:06pm  -  mph - 60f 54f
4:00pm 8 11 mph 1024mb - -
3:54pm 10 17 mph 1024mb - -
3:48pm  -  mph - 60f -
3:42pm  -  mph - 60f -
3:36pm  -  mph - 60f -
3:30pm 11 15 mph 1024.1mb 60f -
3:24pm 14 16 mph 1024.1mb 60f -
3:18pm  -  mph 1024.2mb 60f 55f
3:12pm  -  mph 1024.2mb 60f 55f
3:06pm  -  mph 1024.2mb 60f 55f
3:00pm 10 14 mph 1024.2mb 60f -
2:54pm 13 14 mph 1024.2mb 60f -
2:48pm  -  mph - 60f 55f
2:42pm  -  mph - 60f 55f